sensor_id;sensor_type;location;lat;lon;timestamp;P1;durP1;ratioP1;P2;durP2;ratioP2
62479;SDS011;48526;48.846;2.322;2023-08-07T00:00:33;0.50;;;0.50;;
62479;SDS011;48526;48.846;2.322;2023-08-07T00:02:58;1.00;;;1.00;;
62479;SDS011;48526;48.846;2.322;2023-08-07T00:05:23;3.25;;;0.75;;
62479;SDS011;48526;48.846;2.322;2023-08-07T00:07:49;0.75;;;0.75;;
62479;SDS011;48526;48.846;2.322;2023-08-07T00:10:14;1.75;;;0.50;;
62479;SDS011;48526;48.846;2.322;2023-08-07T00:12:40;1.00;;;1.00;;
62479;SDS011;48526;48.846;2.322;2023-08-07T00:15:05;1.00;;;1.00;;
62479;SDS011;48526;48.846;2.322;2023-08-07T00:17:31;1.00;;;1.00;;
62479;SDS011;48526;48.846;2.322;2023-08-07T00:19:56;1.75;;;0.75;;
62479;SDS011;48526;48.846;2.322;2023-08-07T00:22:22;2.00;;;1.75;;
62479;SDS011;48526;48.846;2.322;2023-08-07T00:24:47;2.00;;;1.75;;
62479;SDS011;48526;48.846;2.322;2023-08-07T00:27:12;3.00;;;1.00;;
62479;SDS011;48526;48.846;2.322;2023-08-07T00:29:39;0.25;;;0.25;;
62479;SDS011;48526;48.846;2.322;2023-08-07T00:32:04;0.00;;;0.00;;
62479;SDS011;48526;48.846;2.322;2023-08-07T00:34:30;0.75;;;0.75;;
62479;SDS011;48526;48.846;2.322;2023-08-07T00:36:56;1.00;;;1.00;;
62479;SDS011;48526;48.846;2.322;2023-08-07T00:39:21;1.25;;;0.25;;
62479;SDS011;48526;48.846;2.322;2023-08-07T00:41:47;0.00;;;0.00;;
62479;SDS011;48526;48.846;2.322;2023-08-07T00:44:12;3.00;;;1.75;;
62479;SDS011;48526;48.846;2.322;2023-08-07T00:46:38;1.75;;;1.00;;
62479;SDS011;48526;48.846;2.322;2023-08-07T00:49:06;0.75;;;0.00;;
62479;SDS011;48526;48.846;2.322;2023-08-07T00:51:35;0.50;;;0.00;;
62479;SDS011;48526;48.846;2.322;2023-08-07T00:54:00;1.00;;;0.00;;
62479;SDS011;48526;48.846;2.322;2023-08-07T00:56:28;1.00;;;1.00;;
62479;SDS011;48526;48.846;2.322;2023-08-07T00:58:53;1.75;;;0.25;;
62479;SDS011;48526;48.846;2.322;2023-08-07T01:01:19;2.00;;;1.00;;
62479;SDS011;48526;48.846;2.322;2023-08-07T01:03:44;1.00;;;1.00;;
62479;SDS011;48526;48.846;2.322;2023-08-07T01:06:10;1.00;;;1.00;;
62479;SDS011;48526;48.846;2.322;2023-08-07T01:08:35;1.00;;;1.00;;
62479;SDS011;48526;48.846;2.322;2023-08-07T01:11:16;1.00;;;1.00;;
62479;SDS011;48526;48.846;2.322;2023-08-07T01:16:16;3.50;;;1.00;;
62479;SDS011;48526;48.846;2.322;2023-08-07T01:18:45;1.00;;;1.00;;
62479;SDS011;48526;48.846;2.322;2023-08-07T01:21:18;2.50;;;1.00;;
62479;SDS011;48526;48.846;2.322;2023-08-07T01:23:45;1.50;;;1.00;;
62479;SDS011;48526;48.846;2.322;2023-08-07T01:26:12;2.00;;;1.00;;
62479;SDS011;48526;48.846;2.322;2023-08-07T01:28:38;1.00;;;1.00;;
62479;SDS011;48526;48.846;2.322;2023-08-07T01:31:09;1.00;;;1.00;;
62479;SDS011;48526;48.846;2.322;2023-08-07T01:33:42;1.00;;;0.00;;
62479;SDS011;48526;48.846;2.322;2023-08-07T01:36:11;2.50;;;1.25;;
62479;SDS011;48526;48.846;2.322;2023-08-07T01:38:37;1.00;;;1.00;;
62479;SDS011;48526;48.846;2.322;2023-08-07T01:41:03;2.00;;;1.00;;
62479;SDS011;48526;48.846;2.322;2023-08-07T01:43:29;2.50;;;1.25;;
62479;SDS011;48526;48.846;2.322;2023-08-07T01:45:56;0.00;;;0.00;;
62479;SDS011;48526;48.846;2.322;2023-08-07T01:48:22;0.75;;;0.75;;
62479;SDS011;48526;48.846;2.322;2023-08-07T01:50:47;3.00;;;2.00;;
62479;SDS011;48526;48.846;2.322;2023-08-07T01:53:12;1.00;;;1.00;;
62479;SDS011;48526;48.846;2.322;2023-08-07T01:55:38;1.00;;;1.00;;
62479;SDS011;48526;48.846;2.322;2023-08-07T01:58:03;2.00;;;1.00;;
62479;SDS011;48526;48.846;2.322;2023-08-07T02:00:28;3.00;;;1.75;;
62479;SDS011;48526;48.846;2.322;2023-08-07T02:02:54;1.75;;;1.50;;
62479;SDS011;48526;48.846;2.322;2023-08-07T02:05:19;1.00;;;1.00;;
62479;SDS011;48526;48.846;2.322;2023-08-07T02:07:45;1.00;;;1.00;;
62479;SDS011;48526;48.846;2.322;2023-08-07T02:10:10;0.50;;;0.50;;
62479;SDS011;48526;48.846;2.322;2023-08-07T02:12:35;4.25;;;1.00;;
62479;SDS011;48526;48.846;2.322;2023-08-07T02:15:01;2.00;;;2.00;;
62479;SDS011;48526;48.846;2.322;2023-08-07T02:17:29;1.50;;;0.00;;
62479;SDS011;48526;48.846;2.322;2023-08-07T02:19:55;1.00;;;1.00;;
62479;SDS011;48526;48.846;2.322;2023-08-07T02:22:21;1.00;;;1.00;;
62479;SDS011;48526;48.846;2.322;2023-08-07T02:24:46;1.00;;;1.00;;
62479;SDS011;48526;48.846;2.322;2023-08-07T02:27:12;2.50;;;1.00;;
62479;SDS011;48526;48.846;2.322;2023-08-07T02:29:37;2.00;;;1.00;;
62479;SDS011;48526;48.846;2.322;2023-08-07T02:32:03;2.00;;;1.00;;
62479;SDS011;48526;48.846;2.322;2023-08-07T02:34:29;2.00;;;0.00;;
62479;SDS011;48526;48.846;2.322;2023-08-07T02:36:54;2.00;;;1.00;;
62479;SDS011;48526;48.846;2.322;2023-08-07T02:39:20;5.00;;;2.00;;
62479;SDS011;48526;48.846;2.322;2023-08-07T02:41:46;2.25;;;1.00;;
62479;SDS011;48526;48.846;2.322;2023-08-07T02:44:11;1.75;;;1.00;;
62479;SDS011;48526;48.846;2.322;2023-08-07T02:46:37;0.75;;;0.75;;
62479;SDS011;48526;48.846;2.322;2023-08-07T02:49:02;2.50;;;2.00;;
62479;SDS011;48526;48.846;2.322;2023-08-07T02:51:28;1.75;;;1.75;;
62479;SDS011;48526;48.846;2.322;2023-08-07T02:53:53;1.00;;;1.00;;
62479;SDS011;48526;48.846;2.322;2023-08-07T02:56:18;2.00;;;2.00;;
62479;SDS011;48526;48.846;2.322;2023-08-07T02:58:44;4.00;;;2.00;;
62479;SDS011;48526;48.846;2.322;2023-08-07T03:01:09;3.00;;;2.00;;
62479;SDS011;48526;48.846;2.322;2023-08-07T03:03:34;3.25;;;1.00;;
62479;SDS011;48526;48.846;2.322;2023-08-07T03:06:00;2.00;;;1.00;;
62479;SDS011;48526;48.846;2.322;2023-08-07T03:08:25;2.25;;;1.00;;
62479;SDS011;48526;48.846;2.322;2023-08-07T03:10:52;1.00;;;1.00;;
62479;SDS011;48526;48.846;2.322;2023-08-07T03:13:18;1.50;;;1.00;;
62479;SDS011;48526;48.846;2.322;2023-08-07T03:15:43;1.00;;;1.00;;
62479;SDS011;48526;48.846;2.322;2023-08-07T03:18:08;1.00;;;1.00;;
62479;SDS011;48526;48.846;2.322;2023-08-07T03:20:36;1.50;;;1.50;;
62479;SDS011;48526;48.846;2.322;2023-08-07T03:23:02;4.00;;;2.00;;
62479;SDS011;48526;48.846;2.322;2023-08-07T03:25:27;2.75;;;1.75;;
62479;SDS011;48526;48.846;2.322;2023-08-07T03:27:52;1.00;;;1.00;;
62479;SDS011;48526;48.846;2.322;2023-08-07T03:30:18;1.25;;;1.00;;
62479;SDS011;48526;48.846;2.322;2023-08-07T03:32:43;2.50;;;2.00;;
62479;SDS011;48526;48.846;2.322;2023-08-07T03:35:09;2.00;;;1.00;;
62479;SDS011;48526;48.846;2.322;2023-08-07T03:37:36;1.25;;;1.00;;
62479;SDS011;48526;48.846;2.322;2023-08-07T03:40:01;3.00;;;2.00;;
62479;SDS011;48526;48.846;2.322;2023-08-07T03:42:27;3.00;;;2.00;;
62479;SDS011;48526;48.846;2.322;2023-08-07T03:44:52;1.50;;;1.00;;
62479;SDS011;48526;48.846;2.322;2023-08-07T03:47:17;1.00;;;1.00;;
62479;SDS011;48526;48.846;2.322;2023-08-07T03:49:43;2.00;;;1.00;;
62479;SDS011;48526;48.846;2.322;2023-08-07T03:52:08;4.25;;;3.00;;
62479;SDS011;48526;48.846;2.322;2023-08-07T03:54:33;2.00;;;2.00;;
62479;SDS011;48526;48.846;2.322;2023-08-07T03:56:59;3.00;;;1.25;;
62479;SDS011;48526;48.846;2.322;2023-08-07T03:59:24;1.00;;;1.00;;
62479;SDS011;48526;48.846;2.322;2023-08-07T04:01:49;1.75;;;1.00;;
62479;SDS011;48526;48.846;2.322;2023-08-07T04:04:15;2.00;;;2.00;;
62479;SDS011;48526;48.846;2.322;2023-08-07T04:06:40;1.50;;;1.50;;
62479;SDS011;48526;48.846;2.322;2023-08-07T04:09:05;5.00;;;2.00;;
62479;SDS011;48526;48.846;2.322;2023-08-07T04:11:31;3.50;;;2.50;;
62479;SDS011;48526;48.846;2.322;2023-08-07T04:13:58;1.25;;;1.00;;
62479;SDS011;48526;48.846;2.322;2023-08-07T04:16:24;1.75;;;1.75;;
62479;SDS011;48526;48.846;2.322;2023-08-07T04:18:50;2.00;;;2.00;;
62479;SDS011;48526;48.846;2.322;2023-08-07T04:21:16;4.00;;;1.00;;
62479;SDS011;48526;48.846;2.322;2023-08-07T04:23:41;2.50;;;2.00;;
62479;SDS011;48526;48.846;2.322;2023-08-07T04:26:06;2.00;;;2.00;;
62479;SDS011;48526;48.846;2.322;2023-08-07T04:28:32;4.00;;;2.00;;
62479;SDS011;48526;48.846;2.322;2023-08-07T04:30:57;2.00;;;2.00;;
62479;SDS011;48526;48.846;2.322;2023-08-07T04:33:22;1.00;;;1.00;;
62479;SDS011;48526;48.846;2.322;2023-08-07T04:35:48;2.50;;;1.00;;
62479;SDS011;48526;48.846;2.322;2023-08-07T04:38:13;2.50;;;0.50;;
62479;SDS011;48526;48.846;2.322;2023-08-07T04:40:43;1.25;;;1.25;;
62479;SDS011;48526;48.846;2.322;2023-08-07T04:43:10;2.50;;;2.00;;
62479;SDS011;48526;48.846;2.322;2023-08-07T04:45:36;2.50;;;1.50;;
62479;SDS011;48526;48.846;2.322;2023-08-07T04:48:03;1.75;;;1.00;;
62479;SDS011;48526;48.846;2.322;2023-08-07T04:50:29;3.00;;;3.00;;
62479;SDS011;48526;48.846;2.322;2023-08-07T04:52:54;2.00;;;2.00;;
62479;SDS011;48526;48.846;2.322;2023-08-07T04:55:19;2.75;;;2.25;;
62479;SDS011;48526;48.846;2.322;2023-08-07T04:57:45;3.75;;;2.00;;
62479;SDS011;48526;48.846;2.322;2023-08-07T05:00:11;2.25;;;1.00;;
62479;SDS011;48526;48.846;2.322;2023-08-07T05:02:37;3.50;;;3.00;;
62479;SDS011;48526;48.846;2.322;2023-08-07T05:05:03;5.75;;;2.50;;
62479;SDS011;48526;48.846;2.322;2023-08-07T05:07:29;1.75;;;1.75;;
62479;SDS011;48526;48.846;2.322;2023-08-07T05:09:54;3.00;;;1.00;;
62479;SDS011;48526;48.846;2.322;2023-08-07T05:12:20;4.25;;;3.25;;
62479;SDS011;48526;48.846;2.322;2023-08-07T05:14:45;2.00;;;2.00;;
62479;SDS011;48526;48.846;2.322;2023-08-07T05:17:10;3.00;;;2.50;;
62479;SDS011;48526;48.846;2.322;2023-08-07T05:19:38;4.75;;;2.00;;
62479;SDS011;48526;48.846;2.322;2023-08-07T05:22:03;4.75;;;3.50;;
62479;SDS011;48526;48.846;2.322;2023-08-07T05:24:29;9.25;;;6.00;;
62479;SDS011;48526;48.846;2.322;2023-08-07T05:27:00;9.25;;;5.50;;
62479;SDS011;48526;48.846;2.322;2023-08-07T05:29:25;11.00;;;5.75;;
62479;SDS011;48526;48.846;2.322;2023-08-07T05:31:50;7.00;;;6.50;;
62479;SDS011;48526;48.846;2.322;2023-08-07T05:34:16;6.75;;;5.00;;
62479;SDS011;48526;48.846;2.322;2023-08-07T05:36:41;9.25;;;6.75;;
62479;SDS011;48526;48.846;2.322;2023-08-07T05:39:06;6.00;;;6.00;;
62479;SDS011;48526;48.846;2.322;2023-08-07T05:41:32;11.50;;;10.00;;
62479;SDS011;48526;48.846;2.322;2023-08-07T05:43:57;8.25;;;8.25;;
62479;SDS011;48526;48.846;2.322;2023-08-07T05:46:23;11.00;;;7.75;;
62479;SDS011;48526;48.846;2.322;2023-08-07T05:48:48;10.25;;;10.25;;
62479;SDS011;48526;48.846;2.322;2023-08-07T05:51:13;6.75;;;6.75;;
62479;SDS011;48526;48.846;2.322;2023-08-07T05:53:39;11.25;;;7.25;;
62479;SDS011;48526;48.846;2.322;2023-08-07T05:56:04;7.00;;;7.00;;
62479;SDS011;48526;48.846;2.322;2023-08-07T05:58:29;12.75;;;7.00;;
62479;SDS011;48526;48.846;2.322;2023-08-07T06:00:55;11.00;;;8.25;;
62479;SDS011;48526;48.846;2.322;2023-08-07T06:03:20;16.25;;;8.75;;
62479;SDS011;48526;48.846;2.322;2023-08-07T06:05:46;9.00;;;9.00;;
62479;SDS011;48526;48.846;2.322;2023-08-07T06:08:11;10.25;;;7.00;;
62479;SDS011;48526;48.846;2.322;2023-08-07T06:10:37;8.25;;;8.25;;
62479;SDS011;48526;48.846;2.322;2023-08-07T06:13:02;9.25;;;8.75;;
62479;SDS011;48526;48.846;2.322;2023-08-07T06:15:29;12.25;;;5.00;;
62479;SDS011;48526;48.846;2.322;2023-08-07T06:17:55;11.75;;;8.75;;
62479;SDS011;48526;48.846;2.322;2023-08-07T06:20:21;10.75;;;6.50;;
62479;SDS011;48526;48.846;2.322;2023-08-07T06:22:46;12.50;;;8.50;;
62479;SDS011;48526;48.846;2.322;2023-08-07T06:25:11;14.50;;;11.50;;
62479;SDS011;48526;48.846;2.322;2023-08-07T06:27:37;9.00;;;8.00;;
62479;SDS011;48526;48.846;2.322;2023-08-07T06:30:05;12.75;;;8.75;;
62479;SDS011;48526;48.846;2.322;2023-08-07T06:32:56;11.00;;;7.00;;
62479;SDS011;48526;48.846;2.322;2023-08-07T06:35:22;9.00;;;8.50;;
62479;SDS011;48526;48.846;2.322;2023-08-07T06:37:47;9.25;;;9.00;;
62479;SDS011;48526;48.846;2.322;2023-08-07T06:40:13;11.75;;;7.50;;
62479;SDS011;48526;48.846;2.322;2023-08-07T06:42:38;12.00;;;7.00;;
62479;SDS011;48526;48.846;2.322;2023-08-07T06:45:04;8.75;;;8.75;;
62479;SDS011;48526;48.846;2.322;2023-08-07T06:47:31;9.75;;;7.75;;
62479;SDS011;48526;48.846;2.322;2023-08-07T06:49:57;12.50;;;8.00;;
62479;SDS011;48526;48.846;2.322;2023-08-07T06:52:22;7.00;;;7.00;;
62479;SDS011;48526;48.846;2.322;2023-08-07T06:54:47;13.75;;;6.75;;
62479;SDS011;48526;48.846;2.322;2023-08-07T06:57:13;9.75;;;6.00;;
62479;SDS011;48526;48.846;2.322;2023-08-07T06:59:38;8.25;;;7.25;;
62479;SDS011;48526;48.846;2.322;2023-08-07T07:02:04;6.75;;;6.75;;
62479;SDS011;48526;48.846;2.322;2023-08-07T07:04:29;13.00;;;8.00;;
62479;SDS011;48526;48.846;2.322;2023-08-07T07:06:55;6.50;;;6.50;;
62479;SDS011;48526;48.846;2.322;2023-08-07T07:09:20;8.00;;;7.00;;
62479;SDS011;48526;48.846;2.322;2023-08-07T07:11:46;9.75;;;9.00;;
62479;SDS011;48526;48.846;2.322;2023-08-07T07:14:11;7.50;;;6.25;;
62479;SDS011;48526;48.846;2.322;2023-08-07T07:16:36;7.25;;;6.25;;
62479;SDS011;48526;48.846;2.322;2023-08-07T07:19:03;8.00;;;7.00;;
62479;SDS011;48526;48.846;2.322;2023-08-07T07:21:28;5.25;;;5.25;;
62479;SDS011;48526;48.846;2.322;2023-08-07T07:23:54;8.75;;;8.00;;
62479;SDS011;48526;48.846;2.322;2023-08-07T07:26:19;7.00;;;6.00;;
62479;SDS011;48526;48.846;2.322;2023-08-07T07:28:44;5.50;;;5.25;;
62479;SDS011;48526;48.846;2.322;2023-08-07T07:31:10;9.50;;;7.00;;
62479;SDS011;48526;48.846;2.322;2023-08-07T07:33:36;9.50;;;6.00;;
62479;SDS011;48526;48.846;2.322;2023-08-07T07:36:04;12.00;;;7.75;;
62479;SDS011;48526;48.846;2.322;2023-08-07T07:38:30;10.75;;;6.75;;
62479;SDS011;48526;48.846;2.322;2023-08-07T07:40:55;8.25;;;6.75;;
62479;SDS011;48526;48.846;2.322;2023-08-07T07:43:22;11.50;;;9.00;;
62479;SDS011;48526;48.846;2.322;2023-08-07T07:45:48;9.25;;;6.50;;
62479;SDS011;48526;48.846;2.322;2023-08-07T07:48:13;7.25;;;5.75;;
62479;SDS011;48526;48.846;2.322;2023-08-07T07:50:38;10.25;;;6.75;;
62479;SDS011;48526;48.846;2.322;2023-08-07T07:53:04;13.75;;;8.75;;
62479;SDS011;48526;48.846;2.322;2023-08-07T07:55:29;10.75;;;7.50;;
62479;SDS011;48526;48.846;2.322;2023-08-07T07:57:54;8.25;;;7.75;;
62479;SDS011;48526;48.846;2.322;2023-08-07T08:00:20;8.00;;;6.25;;
62479;SDS011;48526;48.846;2.322;2023-08-07T08:02:48;6.50;;;6.50;;
62479;SDS011;48526;48.846;2.322;2023-08-07T08:05:13;8.75;;;6.25;;
62479;SDS011;48526;48.846;2.322;2023-08-07T08:07:40;9.25;;;6.50;;
62479;SDS011;48526;48.846;2.322;2023-08-07T08:10:07;9.00;;;6.50;;
62479;SDS011;48526;48.846;2.322;2023-08-07T08:12:33;11.25;;;7.00;;
62479;SDS011;48526;48.846;2.322;2023-08-07T08:14:59;6.25;;;5.75;;
62479;SDS011;48526;48.846;2.322;2023-08-07T08:17:24;7.00;;;6.00;;
62479;SDS011;48526;48.846;2.322;2023-08-07T08:19:50;10.25;;;7.50;;
62479;SDS011;48526;48.846;2.322;2023-08-07T08:22:16;8.00;;;6.75;;
62479;SDS011;48526;48.846;2.322;2023-08-07T08:24:41;5.00;;;4.00;;
62479;SDS011;48526;48.846;2.322;2023-08-07T08:27:06;6.00;;;6.00;;
62479;SDS011;48526;48.846;2.322;2023-08-07T08:29:32;7.00;;;6.00;;
62479;SDS011;48526;48.846;2.322;2023-08-07T08:31:57;7.25;;;7.25;;
62479;SDS011;48526;48.846;2.322;2023-08-07T08:34:22;5.50;;;5.00;;
62479;SDS011;48526;48.846;2.322;2023-08-07T08:36:48;6.25;;;6.00;;
62479;SDS011;48526;48.846;2.322;2023-08-07T08:39:13;7.00;;;4.25;;
62479;SDS011;48526;48.846;2.322;2023-08-07T08:41:39;5.00;;;5.00;;
62479;SDS011;48526;48.846;2.322;2023-08-07T08:44:06;7.00;;;5.00;;
62479;SDS011;48526;48.846;2.322;2023-08-07T08:46:32;5.75;;;4.00;;
62479;SDS011;48526;48.846;2.322;2023-08-07T08:48:58;6.00;;;4.50;;
62479;SDS011;48526;48.846;2.322;2023-08-07T08:51:25;6.00;;;4.75;;
62479;SDS011;48526;48.846;2.322;2023-08-07T08:53:53;6.00;;;6.00;;
62479;SDS011;48526;48.846;2.322;2023-08-07T08:56:21;4.75;;;4.50;;
62479;SDS011;48526;48.846;2.322;2023-08-07T08:58:47;4.50;;;4.25;;
62479;SDS011;48526;48.846;2.322;2023-08-07T09:01:13;5.25;;;5.25;;
62479;SDS011;48526;48.846;2.322;2023-08-07T09:03:39;6.00;;;3.25;;
62479;SDS011;48526;48.846;2.322;2023-08-07T09:06:04;5.00;;;5.00;;
62479;SDS011;48526;48.846;2.322;2023-08-07T09:08:31;6.25;;;4.75;;
62479;SDS011;48526;48.846;2.322;2023-08-07T09:10:57;6.25;;;4.50;;
62479;SDS011;48526;48.846;2.322;2023-08-07T09:13:23;5.00;;;4.00;;
62479;SDS011;48526;48.846;2.322;2023-08-07T09:15:52;5.00;;;3.25;;
62479;SDS011;48526;48.846;2.322;2023-08-07T09:18:18;6.00;;;4.75;;
62479;SDS011;48526;48.846;2.322;2023-08-07T09:20:46;6.75;;;5.00;;
62479;SDS011;48526;48.846;2.322;2023-08-07T09:23:11;2.25;;;2.25;;
62479;SDS011;48526;48.846;2.322;2023-08-07T09:25:37;4.00;;;3.25;;
62479;SDS011;48526;48.846;2.322;2023-08-07T09:28:03;5.25;;;5.00;;
62479;SDS011;48526;48.846;2.322;2023-08-07T09:30:29;5.00;;;5.00;;
62479;SDS011;48526;48.846;2.322;2023-08-07T09:33:01;3.00;;;3.00;;
62479;SDS011;48526;48.846;2.322;2023-08-07T09:35:27;3.75;;;3.00;;
62479;SDS011;48526;48.846;2.322;2023-08-07T09:37:54;4.00;;;4.00;;
62479;SDS011;48526;48.846;2.322;2023-08-07T09:40:21;4.00;;;4.00;;
62479;SDS011;48526;48.846;2.322;2023-08-07T09:42:51;3.00;;;3.00;;
62479;SDS011;48526;48.846;2.322;2023-08-07T09:45:24;2.00;;;2.00;;
62479;SDS011;48526;48.846;2.322;2023-08-07T09:47:57;3.75;;;2.25;;
62479;SDS011;48526;48.846;2.322;2023-08-07T09:50:29;2.75;;;2.50;;
62479;SDS011;48526;48.846;2.322;2023-08-07T09:52:55;4.25;;;3.75;;
62479;SDS011;48526;48.846;2.322;2023-08-07T09:55:21;5.00;;;3.75;;
62479;SDS011;48526;48.846;2.322;2023-08-07T09:57:47;5.50;;;3.75;;
62479;SDS011;48526;48.846;2.322;2023-08-07T10:00:13;4.00;;;4.00;;
62479;SDS011;48526;48.846;2.322;2023-08-07T10:02:40;4.00;;;2.00;;
62479;SDS011;48526;48.846;2.322;2023-08-07T10:05:07;4.00;;;3.00;;
62479;SDS011;48526;48.846;2.322;2023-08-07T10:07:33;3.00;;;3.00;;
62479;SDS011;48526;48.846;2.322;2023-08-07T10:09:59;5.25;;;4.00;;
62479;SDS011;48526;48.846;2.322;2023-08-07T10:12:25;6.00;;;3.25;;
62479;SDS011;48526;48.846;2.322;2023-08-07T10:14:51;3.75;;;2.75;;
62479;SDS011;48526;48.846;2.322;2023-08-07T10:17:16;6.50;;;3.00;;
62479;SDS011;48526;48.846;2.322;2023-08-07T10:19:43;2.75;;;2.75;;
62479;SDS011;48526;48.846;2.322;2023-08-07T10:22:08;2.75;;;2.75;;
62479;SDS011;48526;48.846;2.322;2023-08-07T10:24:35;4.00;;;4.00;;
62479;SDS011;48526;48.846;2.322;2023-08-07T10:27:03;1.50;;;1.00;;
62479;SDS011;48526;48.846;2.322;2023-08-07T10:29:29;3.25;;;3.25;;
62479;SDS011;48526;48.846;2.322;2023-08-07T10:31:55;2.00;;;2.00;;
62479;SDS011;48526;48.846;2.322;2023-08-07T10:34:21;4.00;;;2.00;;
62479;SDS011;48526;48.846;2.322;2023-08-07T10:36:47;2.00;;;1.75;;
62479;SDS011;48526;48.846;2.322;2023-08-07T10:39:12;2.00;;;2.00;;
62479;SDS011;48526;48.846;2.322;2023-08-07T10:44:32;3.00;;;2.50;;
62479;SDS011;48526;48.846;2.322;2023-08-07T10:46:57;3.75;;;3.75;;
62479;SDS011;48526;48.846;2.322;2023-08-07T10:52:02;3.00;;;3.00;;
62479;SDS011;48526;48.846;2.322;2023-08-07T10:54:28;2.25;;;2.25;;
62479;SDS011;48526;48.846;2.322;2023-08-07T10:56:54;6.00;;;3.00;;
62479;SDS011;48526;48.846;2.322;2023-08-07T10:59:20;3.25;;;3.25;;
62479;SDS011;48526;48.846;2.322;2023-08-07T11:01:50;2.00;;;2.00;;
62479;SDS011;48526;48.846;2.322;2023-08-07T11:04:16;2.50;;;2.50;;
62479;SDS011;48526;48.846;2.322;2023-08-07T11:06:42;5.00;;;4.25;;
62479;SDS011;48526;48.846;2.322;2023-08-07T11:09:09;4.75;;;3.00;;
62479;SDS011;48526;48.846;2.322;2023-08-07T11:11:42;4.00;;;3.00;;
62479;SDS011;48526;48.846;2.322;2023-08-07T11:14:17;3.00;;;3.00;;
62479;SDS011;48526;48.846;2.322;2023-08-07T11:16:44;2.00;;;2.00;;
62479;SDS011;48526;48.846;2.322;2023-08-07T11:19:11;2.25;;;2.00;;
62479;SDS011;48526;48.846;2.322;2023-08-07T11:21:37;4.50;;;2.00;;
62479;SDS011;48526;48.846;2.322;2023-08-07T11:24:02;6.25;;;4.00;;
62479;SDS011;48526;48.846;2.322;2023-08-07T11:26:28;3.75;;;3.00;;
62479;SDS011;48526;48.846;2.322;2023-08-07T11:28:54;3.25;;;2.25;;
62479;SDS011;48526;48.846;2.322;2023-08-07T11:31:20;2.50;;;2.00;;
62479;SDS011;48526;48.846;2.322;2023-08-07T11:33:46;2.75;;;2.25;;
62479;SDS011;48526;48.846;2.322;2023-08-07T11:36:15;4.25;;;2.50;;
62479;SDS011;48526;48.846;2.322;2023-08-07T11:38:40;4.00;;;4.00;;
62479;SDS011;48526;48.846;2.322;2023-08-07T11:41:11;3.50;;;2.25;;
62479;SDS011;48526;48.846;2.322;2023-08-07T11:43:38;2.50;;;2.50;;
62479;SDS011;48526;48.846;2.322;2023-08-07T11:46:04;3.25;;;3.25;;
62479;SDS011;48526;48.846;2.322;2023-08-07T11:48:31;2.50;;;2.00;;
62479;SDS011;48526;48.846;2.322;2023-08-07T11:50:57;3.25;;;2.00;;
62479;SDS011;48526;48.846;2.322;2023-08-07T11:53:27;2.75;;;2.75;;
62479;SDS011;48526;48.846;2.322;2023-08-07T11:55:57;2.75;;;2.50;;
62479;SDS011;48526;48.846;2.322;2023-08-07T11:58:24;2.75;;;2.75;;
62479;SDS011;48526;48.846;2.322;2023-08-07T12:00:50;3.75;;;2.75;;
62479;SDS011;48526;48.846;2.322;2023-08-07T12:03:27;3.75;;;2.50;;
62479;SDS011;48526;48.846;2.322;2023-08-07T12:05:55;4.50;;;4.50;;
62479;SDS011;48526;48.846;2.322;2023-08-07T12:08:21;3.25;;;3.25;;
62479;SDS011;48526;48.846;2.322;2023-08-07T12:10:52;6.00;;;4.25;;
62479;SDS011;48526;48.846;2.322;2023-08-07T12:13:25;5.00;;;4.00;;
62479;SDS011;48526;48.846;2.322;2023-08-07T12:15:54;2.75;;;2.75;;
62479;SDS011;48526;48.846;2.322;2023-08-07T12:18:20;2.75;;;2.75;;
62479;SDS011;48526;48.846;2.322;2023-08-07T12:20:48;5.25;;;4.00;;
62479;SDS011;48526;48.846;2.322;2023-08-07T12:23:17;5.50;;;4.50;;
62479;SDS011;48526;48.846;2.322;2023-08-07T12:25:43;5.00;;;3.00;;
62479;SDS011;48526;48.846;2.322;2023-08-07T12:28:09;6.25;;;5.00;;
62479;SDS011;48526;48.846;2.322;2023-08-07T12:30:34;4.75;;;4.25;;
62479;SDS011;48526;48.846;2.322;2023-08-07T12:33:00;3.00;;;3.00;;
62479;SDS011;48526;48.846;2.322;2023-08-07T12:35:26;5.50;;;2.25;;
62479;SDS011;48526;48.846;2.322;2023-08-07T12:37:51;2.75;;;2.50;;
62479;SDS011;48526;48.846;2.322;2023-08-07T12:40:16;3.00;;;3.00;;
62479;SDS011;48526;48.846;2.322;2023-08-07T12:42:45;4.75;;;4.75;;
62479;SDS011;48526;48.846;2.322;2023-08-07T12:45:11;5.00;;;3.75;;
62479;SDS011;48526;48.846;2.322;2023-08-07T12:47:36;3.00;;;3.00;;
62479;SDS011;48526;48.846;2.322;2023-08-07T12:50:02;6.25;;;4.75;;
62479;SDS011;48526;48.846;2.322;2023-08-07T12:52:28;3.75;;;3.00;;
62479;SDS011;48526;48.846;2.322;2023-08-07T12:54:54;2.75;;;2.75;;
62479;SDS011;48526;48.846;2.322;2023-08-07T12:57:20;3.75;;;3.75;;
62479;SDS011;48526;48.846;2.322;2023-08-07T12:59:45;3.75;;;3.75;;
62479;SDS011;48526;48.846;2.322;2023-08-07T13:02:10;4.75;;;3.75;;
62479;SDS011;48526;48.846;2.322;2023-08-07T13:04:36;3.50;;;3.50;;
62479;SDS011;48526;48.846;2.322;2023-08-07T13:07:01;3.50;;;3.00;;
62479;SDS011;48526;48.846;2.322;2023-08-07T13:09:27;3.50;;;3.25;;
62479;SDS011;48526;48.846;2.322;2023-08-07T13:11:52;3.50;;;2.75;;
62479;SDS011;48526;48.846;2.322;2023-08-07T13:14:18;4.50;;;3.75;;
62479;SDS011;48526;48.846;2.322;2023-08-07T13:16:43;2.75;;;2.75;;
62479;SDS011;48526;48.846;2.322;2023-08-07T13:19:08;2.50;;;2.50;;
62479;SDS011;48526;48.846;2.322;2023-08-07T13:21:34;5.00;;;3.75;;
62479;SDS011;48526;48.846;2.322;2023-08-07T13:23:59;3.00;;;2.75;;
62479;SDS011;48526;48.846;2.322;2023-08-07T13:26:25;2.50;;;2.00;;
62479;SDS011;48526;48.846;2.322;2023-08-07T13:28:50;2.75;;;2.75;;
62479;SDS011;48526;48.846;2.322;2023-08-07T13:31:15;3.75;;;2.50;;
62479;SDS011;48526;48.846;2.322;2023-08-07T13:33:41;3.00;;;3.00;;
62479;SDS011;48526;48.846;2.322;2023-08-07T13:36:06;3.00;;;3.00;;
62479;SDS011;48526;48.846;2.322;2023-08-07T13:38:32;3.00;;;3.00;;
62479;SDS011;48526;48.846;2.322;2023-08-07T13:40:57;4.00;;;4.00;;
62479;SDS011;48526;48.846;2.322;2023-08-07T13:43:23;3.75;;;2.50;;
62479;SDS011;48526;48.846;2.322;2023-08-07T13:45:48;3.00;;;3.00;;
62479;SDS011;48526;48.846;2.322;2023-08-07T13:48:15;3.00;;;3.00;;
62479;SDS011;48526;48.846;2.322;2023-08-07T13:50:42;3.75;;;3.75;;
62479;SDS011;48526;48.846;2.322;2023-08-07T13:53:07;7.00;;;3.50;;
62479;SDS011;48526;48.846;2.322;2023-08-07T13:55:33;4.75;;;3.00;;
62479;SDS011;48526;48.846;2.322;2023-08-07T13:57:58;4.00;;;3.00;;
62479;SDS011;48526;48.846;2.322;2023-08-07T14:00:23;3.00;;;2.75;;
62479;SDS011;48526;48.846;2.322;2023-08-07T14:02:49;4.00;;;4.00;;
62479;SDS011;48526;48.846;2.322;2023-08-07T14:05:14;3.00;;;3.00;;
62479;SDS011;48526;48.846;2.322;2023-08-07T14:07:39;3.00;;;3.00;;
62479;SDS011;48526;48.846;2.322;2023-08-07T14:10:05;2.50;;;2.50;;
62479;SDS011;48526;48.846;2.322;2023-08-07T14:12:30;3.00;;;2.00;;
62479;SDS011;48526;48.846;2.322;2023-08-07T14:14:56;5.00;;;3.00;;
62479;SDS011;48526;48.846;2.322;2023-08-07T14:17:21;4.00;;;3.00;;
62479;SDS011;48526;48.846;2.322;2023-08-07T14:19:46;5.50;;;3.00;;
62479;SDS011;48526;48.846;2.322;2023-08-07T14:22:12;4.75;;;2.00;;
62479;SDS011;48526;48.846;2.322;2023-08-07T14:24:37;4.50;;;2.25;;
62479;SDS011;48526;48.846;2.322;2023-08-07T14:27:03;5.00;;;3.25;;
62479;SDS011;48526;48.846;2.322;2023-08-07T14:29:29;4.00;;;4.00;;
62479;SDS011;48526;48.846;2.322;2023-08-07T14:31:54;4.75;;;3.25;;
62479;SDS011;48526;48.846;2.322;2023-08-07T14:34:19;2.00;;;2.00;;
62479;SDS011;48526;48.846;2.322;2023-08-07T14:36:45;3.00;;;3.00;;
62479;SDS011;48526;48.846;2.322;2023-08-07T14:39:10;3.00;;;3.00;;
62479;SDS011;48526;48.846;2.322;2023-08-07T14:41:35;4.00;;;2.75;;
62479;SDS011;48526;48.846;2.322;2023-08-07T14:44:01;2.75;;;2.75;;
62479;SDS011;48526;48.846;2.322;2023-08-07T14:46:26;5.75;;;4.00;;